Time;durP1;ratioP1;P1;durP2;ratioP2;P2;SDS_P1;SDS_P2;PMS_P1;PMS_P2;Temp;Humidity;BMP_temperature;BMP_pressure;BME280_temperature;BME280_humidity;BME280_pressure;Samples;Min_cycle;Max_cycle;Signal;HPM_P1;HPM_P2
2023/09/06 00:02:10;;;;;;;8.90;5.40;;;;;;;19.09;45.97;100866.55;108197;1255;74342;-66
2023/09/06 00:04:38;;;;;;;9.30;5.60;;;;;;;19.09;46.08;100868.31;108193;1253;69976;-66
2023/09/06 00:07:06;;;;;;;8.60;5.60;;;;;;;19.09;46.12;100862.84;108168;1253;72960;-66
2023/09/06 00:09:33;;;;;;;8.30;5.70;;;;;;;18.91;46.44;100866.22;108187;1254;60371;-66
2023/09/06 00:12:00;;;;;;;11.60;6.60;;;;;;;18.99;46.36;100863.39;108150;1259;60399;-67
2023/09/06 00:14:29;;;;;;;10.90;5.70;;;;;;;19.02;46.14;100861.27;108182;1253;73831;-67
2023/09/06 00:16:57;;;;;;;11.10;6.10;;;;;;;19.03;46.23;100860.55;108162;1253;70116;-66
2023/09/06 00:19:24;;;;;;;9.90;6.40;;;;;;;19.05;46.05;100859.11;108171;1254;72641;-67
2023/09/06 00:21:51;;;;;;;9.40;5.70;;;;;;;19.01;46.22;100861.87;108139;1256;60463;-66
2023/09/06 00:24:19;;;;;;;10.80;6.20;;;;;;;19.02;46.15;100857.73;108151;1256;60356;-65
2023/09/06 00:26:46;;;;;;;12.90;6.20;;;;;;;18.82;46.48;100856.07;108059;1254;73880;-67
2023/09/06 00:29:14;;;;;;;8.90;6.00;;;;;;;18.72;46.83;100855.05;108133;1254;69954;-67
2023/09/06 00:31:41;;;;;;;10.60;6.10;;;;;;;18.73;47.06;100852.35;108006;1260;73137;-67
2023/09/06 00:34:09;;;;;;;10.40;5.90;;;;;;;19.00;46.69;100856.91;108094;1252;60258;-66
2023/09/06 00:36:36;;;;;;;8.70;5.80;;;;;;;19.24;46.16;100854.98;108111;1254;60865;-67
2023/09/06 00:39:05;;;;;;;8.40;5.40;;;;;;;19.32;45.81;100851.42;108115;1254;73883;-66
2023/09/06 00:41:33;;;;;;;9.80;5.70;;;;;;;19.24;45.94;100851.77;107949;1254;70562;-67
2023/09/06 00:44:00;;;;;;;8.50;5.60;;;;;;;19.27;45.77;100853.33;108025;1254;72664;-67
2023/09/06 00:46:28;;;;;;;11.90;5.90;;;;;;;19.23;45.79;100853.05;108012;1254;61719;-65
2023/09/06 00:52:04;;;;;;;10.90;6.30;;;;;;;16.79;51.75;100868.34;104691;1293;600537;-65
2023/09/06 00:54:31;;;;;;;11.40;6.50;;;;;;;17.80;49.16;100866.89;107175;1269;60730;-66
2023/09/06 00:56:59;;;;;;;12.50;6.50;;;;;;;18.04;48.65;100866.98;107167;1269;58735;-65
2023/09/06 00:59:26;;;;;;;9.20;6.10;;;;;;;18.12;48.51;100863.16;107188;1267;72238;-65
2023/09/06 01:01:55;;;;;;;8.10;5.40;;;;;;;18.02;48.99;100864.95;107137;1267;67953;-65
2023/09/06 01:04:24;;;;;;;10.50;6.40;;;;;;;18.02;49.05;100864.94;107112;1269;71130;-66
2023/09/06 01:06:57;;;;;;;9.10;6.50;;;;;;;17.92;49.03;100861.11;106906;1267;465620;-66
2023/09/06 01:09:25;;;;;;;10.10;5.50;;;;;;;17.88;49.04;100861.65;107219;1264;59602;-66
2023/09/06 01:11:53;;;;;;;8.20;5.50;;;;;;;17.99;49.12;100861.43;107276;1266;72287;-67
2023/09/06 01:14:20;;;;;;;8.40;5.60;;;;;;;17.82;49.69;100860.55;107999;1254;73571;-67
2023/09/06 01:16:48;;;;;;;10.60;6.80;;;;;;;17.75;49.97;100859.11;108012;1255;72413;-68
2023/09/06 01:19:18;;;;;;;9.20;6.10;;;;;;;17.68;50.11;100864.14;108042;1254;62460;-68
2023/09/06 01:21:52;;;;;;;8.40;5.70;;;;;;;17.83;50.03;100863.32;107983;1254;59503;-70
2023/09/06 01:24:20;;;;;;;10.30;6.20;;;;;;;17.89;49.82;100861.80;107928;1254;71743;-67
2023/09/06 01:26:47;;;;;;;9.40;5.40;;;;;;;17.85;49.75;100862.36;107803;1254;70326;-67
2023/09/06 01:29:15;;;;;;;10.70;6.00;;;;;;;17.85;49.86;100859.32;107768;1254;72665;-66
2023/09/06 01:31:42;;;;;;;9.30;6.00;;;;;;;17.80;50.00;100860.83;107683;1255;61798;-66
2023/09/06 01:34:10;;;;;;;8.10;5.30;;;;;;;17.86;50.01;100855.70;107848;1254;59456;-66
2023/09/06 01:36:38;;;;;;;8.70;5.80;;;;;;;17.91;50.16;100854.73;107908;1254;72218;-66
2023/09/06 01:39:08;;;;;;;8.80;5.80;;;;;;;18.03;49.95;100850.48;107854;1254;69984;-67
2023/09/06 01:41:36;;;;;;;9.80;5.50;;;;;;;17.89;50.41;100846.66;107962;1254;72514;-68
2023/09/06 01:44:04;;;;;;;10.40;6.00;;;;;;;17.92;50.37;100849.72;107855;1258;60763;-66
2023/09/06 01:46:31;;;;;;;11.80;6.10;;;;;;;17.99;50.08;100851.98;107973;1254;59514;-67
2023/09/06 01:49:02;;;;;;;8.90;6.30;;;;;;;17.89;50.23;100848.98;107997;1254;72869;-67
2023/09/06 01:51:31;;;;;;;10.60;6.40;;;;;;;17.98;49.82;100845.63;107856;1254;70567;-66
2023/09/06 01:54:01;;;;;;;9.50;5.40;;;;;;;18.08;49.66;100846.14;108040;1254;71641;-66
2023/09/06 01:56:28;;;;;;;9.40;6.60;;;;;;;18.06;49.70;100847.30;107974;1254;60598;-67
2023/09/06 01:58:56;;;;;;;7.90;5.30;;;;;;;18.10;49.63;100852.59;107992;1254;60063;-67
2023/09/06 02:01:23;;;;;;;9.50;6.00;;;;;;;17.88;50.47;100852.63;108008;1256;73028;-66
2023/09/06 02:03:50;;;;;;;12.90;6.80;;;;;;;17.66;50.84;100853.95;107897;1257;68244;-67
2023/09/06 02:06:18;;;;;;;9.60;6.70;;;;;;;17.62;51.00;100858.61;107861;1254;72636;-67
2023/09/06 02:08:46;;;;;;;11.40;6.10;;;;;;;17.80;50.77;100855.54;107935;1254;60411;-66
2023/09/06 02:11:15;;;;;;;10.20;6.40;;;;;;;17.74;50.92;100857.26;108031;1258;60012;-67
2023/09/06 02:13:42;;;;;;;9.60;5.60;;;;;;;17.65;51.50;100854.21;108028;1259;72179;-67
2023/09/06 02:16:12;;;;;;;9.90;6.20;;;;;;;17.77;51.06;100859.58;107964;1254;70109;-67
2023/09/06 02:18:39;;;;;;;12.10;6.80;;;;;;;17.94;50.56;100856.16;107792;1254;72425;-67
2023/09/06 02:21:06;;;;;;;10.60;6.90;;;;;;;18.00;50.32;100855.09;107895;1256;62111;-67
2023/09/06 02:23:35;;;;;;;22.40;6.50;;;;;;;18.01;50.33;100856.67;108011;1258;59974;-67
2023/09/06 02:26:03;;;;;;;10.60;6.60;;;;;;;17.94;50.25;100855.84;107770;1255;71852;-67
2023/09/06 02:28:30;;;;;;;9.20;6.30;;;;;;;17.98;50.28;100855.04;108026;1257;69395;-67
2023/09/06 02:30:59;;;;;;;11.00;6.70;;;;;;;17.91;50.55;100853.71;107991;1257;72881;-66
2023/09/06 02:33:28;;;;;;;11.90;6.10;;;;;;;17.78;50.88;100851.55;107810;1254;61678;-67
2023/09/06 02:35:55;;;;;;;8.70;6.40;;;;;;;17.50;51.46;100860.88;108059;1254;60041;-66
2023/09/06 02:38:23;;;;;;;9.30;6.00;;;;;;;17.47;51.57;100854.67;107972;1257;73045;-66
2023/09/06 02:40:52;;;;;;;13.30;6.80;;;;;;;17.47;51.71;100857.51;107863;1254;69956;-67
2023/09/06 02:43:19;;;;;;;12.40;6.70;;;;;;;17.37;52.25;100855.17;107955;1257;72718;-67
2023/09/06 02:45:49;;;;;;;11.00;5.50;;;;;;;17.46;52.23;100852.73;107831;1260;60404;-66
2023/09/06 02:48:18;;;;;;;9.30;6.10;;;;;;;17.55;52.11;100850.66;107963;1254;58978;-65
2023/09/06 02:50:46;;;;;;;10.40;6.80;;;;;;;17.63;52.18;100849.52;107956;1254;75270;-66
2023/09/06 02:53:20;;;;;;;8.50;6.60;;;;;;;17.64;52.29;100851.41;108026;1254;69908;-67
2023/09/06 02:55:53;;;;;;;10.40;6.50;;;;;;;17.66;52.23;100852.19;107940;1256;70602;-65
2023/09/06 02:58:23;;;;;;;9.70;6.10;;;;;;;17.71;52.09;100853.16;107918;1254;62103;-66
2023/09/06 03:01:05;;;;;;;9.70;6.40;;;;;;;17.71;52.15;100847.98;108023;1254;59534;-68
2023/09/06 03:03:34;;;;;;;14.30;6.60;;;;;;;17.66;52.16;100850.40;107874;1254;71884;-67
2023/09/06 03:06:04;;;;;;;10.80;6.50;;;;;;;17.69;52.16;100852.70;108000;1255;68822;-66
2023/09/06 03:08:33;;;;;;;11.10;6.10;;;;;;;17.72;52.05;100851.99;107970;1256;72912;-66
2023/09/06 03:11:02;;;;;;;10.80;6.80;;;;;;;17.63;52.18;100853.42;107876;1254;60419;-66
2023/09/06 03:13:30;;;;;;;9.60;6.50;;;;;;;17.59;52.20;100855.23;107932;1255;59645;-67
2023/09/06 03:15:59;;;;;;;9.70;6.10;;;;;;;17.62;52.02;100853.67;107903;1254;71832;-66
2023/09/06 03:18:29;;;;;;;9.30;6.20;;;;;;;17.66;51.82;100847.91;107709;1254;68967;-67
2023/09/06 03:21:04;;;;;;;9.70;6.50;;;;;;;17.65;52.09;100850.27;107805;1254;71703;-67
2023/09/06 03:23:33;;;;;;;12.70;6.70;;;;;;;17.68;52.06;100849.58;107943;1260;61641;-66
2023/09/06 03:26:02;;;;;;;8.60;6.20;;;;;;;17.74;52.04;100847.14;107983;1254;59396;-66
2023/09/06 03:28:37;;;;;;;11.60;6.50;;;;;;;17.87;51.65;100849.08;107800;1254;71038;-67
2023/09/06 03:31:08;;;;;;;8.20;5.60;;;;;;;17.83;51.78;100851.45;107941;1254;69537;-67
2023/09/06 03:33:39;;;;;;;10.70;5.90;;;;;;;17.80;51.83;100848.95;108018;1255;71639;-67
2023/09/06 03:36:09;;;;;;;13.10;6.70;;;;;;;17.70;52.08;100853.39;107822;1256;60986;-66
2023/09/06 03:38:37;;;;;;;9.20;6.60;;;;;;;17.73;52.01;100851.97;107749;1258;59641;-66
2023/09/06 03:41:07;;;;;;;11.00;7.10;;;;;;;17.82;51.85;100852.39;107897;1254;73072;-66
2023/09/06 03:43:35;;;;;;;11.10;6.30;;;;;;;17.85;51.79;100853.82;107941;1256;68557;-66
2023/09/06 03:46:07;;;;;;;10.40;6.70;;;;;;;17.82;51.93;100854.32;107779;1255;72762;-67
2023/09/06 03:48:35;;;;;;;9.70;6.70;;;;;;;17.90;51.86;100848.23;108032;1254;61011;-67
2023/09/06 03:51:04;;;;;;;10.30;6.60;;;;;;;17.95;51.75;100850.08;107707;1254;60065;-66
2023/09/06 03:53:33;;;;;;;9.90;6.40;;;;;;;18.00;51.92;100855.85;107923;1254;72964;-66
2023/09/06 03:56:01;;;;;;;10.00;6.60;;;;;;;18.11;51.85;100859.44;107936;1254;69964;-67
2023/09/06 03:58:40;;;;;;;12.10;6.20;;;;;;;18.21;51.95;100859.44;107781;1257;71412;-68
2023/09/06 04:01:10;;;;;;;8.90;6.40;;;;;;;18.39;51.91;100862.16;107887;1254;61710;-67
2023/09/06 04:03:40;;;;;;;12.00;6.50;;;;;;;18.58;51.97;100869.01;107937;1254;59952;-67
2023/09/06 04:06:10;;;;;;;15.80;6.90;;;;;;;18.90;51.84;100865.39;107909;1259;73800;-66
2023/09/06 04:08:39;;;;;;;9.40;6.40;;;;;;;19.28;51.70;100861.30;108023;1254;70073;-67
2023/09/06 04:11:09;;;;;;;10.90;6.30;;;;;;;19.86;50.80;100870.70;107735;1254;72658;-67
2023/09/06 04:13:40;;;;;;;6.90;5.50;;;;;;;20.34;50.08;100870.22;107706;1255;60359;-67
2023/09/06 04:16:08;;;;;;;10.40;5.70;;;;;;;21.02;49.02;100871.96;107988;1257;60028;-67
2023/09/06 04:18:37;;;;;;;9.10;5.40;;;;;;;21.53;47.68;100867.30;107985;1256;73050;-68
2023/09/06 04:21:08;;;;;;;21.00;6.40;;;;;;;21.97;46.70;100865.94;107988;1256;70336;-67
2023/09/06 04:23:39;;;;;;;25.90;6.60;;;;;;;22.39;45.96;100865.54;107781;1256;72797;-67
2023/09/06 04:26:08;;;;;;;12.30;4.60;;;;;;;22.83;44.89;100864.37;107881;1256;61722;-67
2023/09/06 04:28:36;;;;;;;11.20;5.50;;;;;;;23.14;44.45;100866.30;107834;1256;59113;-68
2023/09/06 04:31:08;;;;;;;10.90;6.00;;;;;;;23.34;43.85;100869.95;107810;1257;73061;-66
2023/09/06 04:33:38;;;;;;;11.10;6.20;;;;;;;23.63;43.63;100867.05;107747;1256;69439;-67
2023/09/06 04:36:26;;;;;;;11.90;6.20;;;;;;;23.94;43.37;100871.02;107753;1257;72690;-67
2023/09/06 04:39:03;;;;;;;11.40;5.70;;;;;;;24.31;42.88;100868.91;107769;1256;61673;-66
2023/09/06 04:41:33;;;;;;;11.40;6.00;;;;;;;24.69;41.94;100874.20;107876;1256;60053;-67
2023/09/06 04:44:03;;;;;;;11.10;6.00;;;;;;;24.85;41.50;100874.81;107821;1256;72860;-67
2023/09/06 04:46:31;;;;;;;7.20;5.20;;;;;;;24.76;41.45;100876.33;107758;1257;69956;-67
2023/09/06 04:48:58;;;;;;;11.50;6.60;;;;;;;24.64;41.60;100873.02;107916;1256;71422;-66
2023/09/06 04:51:27;;;;;;;11.10;6.50;;;;;;;24.67;41.84;100878.50;108015;1260;60558;-66
2023/09/06 04:53:59;;;;;;;9.30;6.30;;;;;;;24.77;41.97;100875.29;108434;1256;59139;-68
2023/09/06 04:56:35;;;;;;;14.60;6.40;;;;;;;25.02;41.81;100874.28;108310;1256;72218;-67
2023/09/06 04:59:03;;;;;;;13.30;6.40;;;;;;;25.54;41.36;100870.51;107834;1256;69216;-66
2023/09/06 05:01:31;;;;;;;13.10;6.50;;;;;;;25.94;40.70;100872.70;107743;1256;72747;-67
2023/09/06 05:03:58;;;;;;;14.20;6.60;;;;;;;26.28;40.25;100868.73;107828;1256;60974;-67
2023/09/06 05:06:26;;;;;;;13.10;6.60;;;;;;;26.79;39.55;100873.38;107889;1256;59534;-68
2023/09/06 05:08:54;;;;;;;12.90;7.20;;;;;;;27.39;38.69;100867.15;107728;1262;73827;-68
2023/09/06 05:11:23;;;;;;;10.60;6.00;;;;;;;27.74;38.28;100862.27;107901;1256;69269;-68
2023/09/06 05:13:52;;;;;;;11.10;5.90;;;;;;;28.12;37.61;100864.36;107837;1257;71135;-68
2023/09/06 05:16:20;;;;;;;9.10;5.60;;;;;;;28.59;36.90;100860.40;107885;1256;60402;-68
2023/09/06 05:18:48;;;;;;;12.00;6.10;;;;;;;28.62;37.00;100860.95;107812;1260;60251;-69
2023/09/06 05:21:19;;;;;;;10.90;5.40;;;;;;;29.64;35.29;100857.27;108026;1256;73874;-67
2023/09/06 05:23:47;;;;;;;8.80;6.10;;;;;;;29.55;34.65;100858.44;107817;1256;69983;-68
2023/09/06 05:26:15;;;;;;;11.20;5.60;;;;;;;29.25;34.91;100864.48;107907;1256;71044;-68
2023/09/06 05:28:44;;;;;;;11.90;7.20;;;;;;;28.79;35.28;100864.11;107987;1256;60299;-67
2023/09/06 05:31:12;;;;;;;15.00;6.70;;;;;;;27.91;36.65;100863.79;108068;1255;60374;-67
2023/09/06 05:33:42;;;;;;;24.40;7.20;;;;;;;27.56;37.63;100862.43;107832;1255;73927;-66
2023/09/06 05:36:11;;;;;;;14.20;6.90;;;;;;;27.66;37.76;100865.46;107953;1255;69130;-68
2023/09/06 05:38:39;;;;;;;13.90;6.60;;;;;;;28.13;37.49;100865.01;107887;1257;73128;-69
2023/09/06 05:41:06;;;;;;;15.40;7.30;;;;;;;28.52;36.72;100866.76;107861;1254;60390;-69
2023/09/06 05:43:39;;;;;;;15.40;6.80;;;;;;;29.20;35.51;100872.16;107891;1254;59348;-69
2023/09/06 05:46:07;;;;;;;10.80;6.80;;;;;;;29.82;34.78;100867.34;107994;1254;73873;-68
2023/09/06 05:48:54;;;;;;;9.90;6.00;;;;;;;30.69;33.05;100866.57;107943;1259;68902;-68
2023/09/06 05:51:24;;;;;;;12.80;6.60;;;;;;;31.33;32.15;100862.02;107936;1257;71803;-68
2023/09/06 05:53:52;;;;;;;10.50;5.90;;;;;;;31.68;31.17;100864.56;107664;1254;60340;-68
2023/09/06 05:56:20;;;;;;;8.40;4.70;;;;;;;31.82;30.54;100865.10;107923;1259;59126;-68
2023/09/06 05:58:48;;;;;;;7.30;4.60;;;;;;;31.59;30.02;100872.91;107831;1255;73844;-67
2023/09/06 06:01:17;;;;;;;7.80;4.50;;;;;;;31.26;29.98;100874.23;107850;1254;70511;-68
2023/09/06 06:03:45;;;;;;;9.40;5.20;;;;;;;31.13;30.19;100875.11;107827;1254;72705;-67
2023/09/06 06:06:17;;;;;;;9.80;5.10;;;;;;;30.83;30.46;100879.57;107983;1255;61329;-67
2023/09/06 06:08:45;;;;;;;16.40;5.80;;;;;;;30.63;30.87;100879.75;107912;1255;60312;-68
2023/09/06 06:11:12;;;;;;;9.60;5.20;;;;;;;30.67;30.84;100880.63;107936;1259;73883;-67
2023/09/06 06:13:40;;;;;;;8.90;4.60;;;;;;;30.83;30.37;100879.26;107953;1256;70219;-69
2023/09/06 06:16:16;;;;;;;6.90;4.40;;;;;;;31.24;29.17;100882.30;107824;1256;71537;-68
2023/09/06 06:18:44;;;;;;;11.40;4.30;;;;;;;31.34;28.48;100884.24;107998;1256;60806;-67
2023/09/06 06:21:11;;;;;;;7.50;4.50;;;;;;;31.14;28.82;100891.03;107995;1257;60361;-68
2023/09/06 06:23:43;;;;;;;10.00;4.40;;;;;;;30.96;28.91;100892.48;107807;1256;76115;-68
2023/09/06 06:26:10;;;;;;;10.40;5.00;;;;;;;30.61;28.86;100888.38;107871;1254;68920;-68
2023/09/06 06:28:38;;;;;;;8.70;4.70;;;;;;;30.22;29.33;100887.49;107942;1256;71732;-68
2023/09/06 06:31:06;;;;;;;8.80;4.80;;;;;;;30.06;29.60;100884.92;107802;1255;60401;-69
2023/09/06 06:33:35;;;;;;;10.40;5.50;;;;;;;30.17;29.82;100888.61;107809;1256;60277;-68
2023/09/06 06:36:02;;;;;;;10.10;5.70;;;;;;;30.26;30.07;100890.52;107803;1256;73861;-67
2023/09/06 06:38:30;;;;;;;7.40;4.80;;;;;;;30.40;29.73;100887.89;107876;1256;69984;-68
2023/09/06 06:40:58;;;;;;;8.70;5.50;;;;;;;30.62;29.77;100886.41;107881;1256;72686;-68
2023/09/06 06:43:27;;;;;;;8.70;5.30;;;;;;;30.96;29.47;100886.27;107691;1256;60387;-69
2023/09/06 06:45:54;;;;;;;10.50;4.90;;;;;;;30.98;29.23;100885.01;107912;1256;60370;-68
2023/09/06 06:48:22;;;;;;;9.30;5.30;;;;;;;31.06;29.05;100886.59;107863;1257;72690;-68
2023/09/06 06:50:49;;;;;;;8.60;5.70;;;;;;;31.06;29.01;100884.45;107782;1256;70047;-67
2023/09/06 09:20:57;;;;;;;4.10;2.40;;;;;;;35.60;22.46;100819.00;105496;1285;604786;-69
2023/09/06 09:23:26;;;;;;;6.10;2.70;;;;;;;37.21;21.18;100811.45;107538;1256;158978;-67
2023/09/06 09:25:54;;;;;;;5.20;2.40;;;;;;;37.46;20.79;100809.60;107793;1256;59237;-68
2023/09/06 09:28:21;;;;;;;7.30;2.70;;;;;;;37.55;20.54;100804.41;107914;1256;74496;-70
2023/09/06 09:30:49;;;;;;;4.30;2.60;;;;;;;37.60;20.31;100800.03;107952;1255;60098;-70
2023/09/06 09:33:16;;;;;;;6.40;3.00;;;;;;;37.46;20.57;100801.52;107775;1256;62463;-69
2023/09/06 09:35:47;;;;;;;5.50;2.90;;;;;;;37.47;20.70;100806.67;107924;1256;58850;-70
2023/09/06 09:38:14;;;;;;;5.50;2.90;;;;;;;37.45;20.59;100803.98;107883;1255;59278;-70
2023/09/06 09:40:41;;;;;;;7.80;2.60;;;;;;;37.58;20.36;100801.12;107956;1255;64722;-69
2023/09/06 09:43:12;;;;;;;8.00;2.50;;;;;;;37.55;20.34;100796.13;107925;1256;61471;-69
2023/09/06 09:45:43;;;;;;;6.70;2.70;;;;;;;37.41;20.31;100800.16;107907;1256;63830;-68
2023/09/06 09:48:15;;;;;;;8.20;2.60;;;;;;;37.12;20.48;100805.26;108028;1256;59876;-69
2023/09/06 09:50:44;;;;;;;4.30;2.50;;;;;;;37.01;20.61;100804.85;107883;1256;59132;-69
2023/09/06 09:53:12;;;;;;;4.00;2.80;;;;;;;36.90;20.84;100796.17;107789;1256;64179;-68
2023/09/06 09:55:46;;;;;;;7.30;2.40;;;;;;;36.73;20.92;100796.79;107797;1256;61890;-70
2023/09/06 09:58:13;;;;;;;5.40;2.50;;;;;;;36.89;21.00;100792.55;107901;1256;63731;-69
2023/09/06 10:00:41;;;;;;;5.60;2.70;;;;;;;37.15;20.80;100792.97;107658;1256;60109;-70
2023/09/06 10:03:09;;;;;;;3.50;2.20;;;;;;;37.15;20.79;100799.14;107757;1256;59547;-70
2023/09/06 10:05:38;;;;;;;4.80;2.50;;;;;;;37.24;20.62;100799.19;107774;1256;62985;-69
2023/09/06 10:08:08;;;;;;;7.50;2.60;;;;;;;37.33;20.48;100796.66;107757;1256;61494;-68
2023/09/06 10:10:37;;;;;;;3.50;2.10;;;;;;;37.84;20.46;100791.48;107531;1260;63806;-68
2023/09/06 10:13:07;;;;;;;4.70;2.50;;;;;;;38.01;20.14;100792.72;107825;1256;59506;-69
2023/09/06 10:15:36;;;;;;;2.90;1.90;;;;;;;38.26;20.11;100792.39;107671;1256;59586;-70
2023/09/06 10:18:04;;;;;;;3.70;2.30;;;;;;;38.26;20.02;100789.14;107781;1256;66727;-70
2023/09/06 10:20:34;;;;;;;3.50;2.10;;;;;;;38.28;19.88;100787.17;107835;1260;60119;-70
2023/09/06 10:23:04;;;;;;;4.80;2.20;;;;;;;37.92;20.03;100791.88;107789;1257;62467;-69
2023/09/06 10:25:32;;;;;;;4.90;2.30;;;;;;;37.64;20.43;100791.10;107936;1256;59664;-69
2023/09/06 10:27:59;;;;;;;5.50;2.20;;;;;;;37.59;20.56;100790.66;107864;1256;59444;-69
2023/09/06 10:30:47;;;;;;;2.60;1.90;;;;;;;37.40;20.65;100790.17;108029;1256;74028;-71
2023/09/06 10:33:53;;;;;;;9.50;2.70;;;;;;;37.60;20.81;100788.71;108571;1256;60153;-70
2023/09/06 10:36:22;;;;;;;6.60;2.50;;;;;;;37.57;20.60;100781.45;108435;1256;62979;-71
2023/09/06 10:38:52;;;;;;;7.20;2.60;;;;;;;37.48;20.68;100778.70;108069;1255;59607;-71
2023/09/06 10:41:46;;;;;;;4.30;2.40;;;;;;;37.50;20.66;100782.36;107960;1256;59841;-69
2023/09/06 10:44:14;;;;;;;3.90;2.30;;;;;;;37.36;20.91;100781.57;107826;1255;63003;-71
2023/09/06 10:46:42;;;;;;;16.20;3.60;;;;;;;37.30;20.54;100781.61;107966;1256;61565;-69
2023/09/06 10:49:19;;;;;;;3.90;2.40;;;;;;;37.23;20.67;100776.90;108009;1255;64005;-70
2023/09/06 10:52:04;;;;;;;5.50;2.40;;;;;;;37.00;20.81;100776.43;107887;1258;59671;-70
2023/09/06 10:54:34;;;;;;;4.40;2.20;;;;;;;36.67;21.32;100779.15;107839;1256;59634;-69
2023/09/06 10:57:05;;;;;;;4.70;2.50;;;;;;;36.28;21.51;100777.48;107757;1256;72182;-69
2023/09/06 10:59:37;;;;;;;3.60;2.20;;;;;;;35.85;21.83;100776.64;107889;1256;61581;-73
2023/09/06 11:02:23;;;;;;;6.40;2.30;;;;;;;35.57;22.23;100775.16;107970;1256;62502;-71
2023/09/06 11:05:09;;;;;;;8.80;2.10;;;;;;;35.39;22.35;100773.77;107840;1256;57804;-71
2023/09/06 11:07:43;;;;;;;18.80;3.00;;;;;;;35.55;22.64;100772.36;107865;1255;59155;-71
2023/09/06 11:10:13;;;;;;;13.60;3.00;;;;;;;35.78;22.39;100772.29;107853;1256;73887;-71
2023/09/06 11:12:41;;;;;;;6.80;2.10;;;;;;;35.95;22.27;100771.99;107941;1256;61362;-70
2023/09/06 11:15:10;;;;;;;6.30;2.30;;;;;;;35.85;22.53;100768.48;107961;1256;63790;-71
2023/09/06 11:17:37;;;;;;;4.20;2.60;;;;;;;35.60;22.93;100759.70;107949;1257;59586;-71
2023/09/06 11:20:10;;;;;;;6.00;2.40;;;;;;;35.57;22.76;100758.64;107942;1255;59523;-71
2023/09/06 11:22:49;;;;;;;3.70;2.10;;;;;;;35.88;22.61;100759.75;107868;1256;74075;-72
2023/09/06 11:25:18;;;;;;;5.60;2.30;;;;;;;36.07;22.38;100747.55;107867;1256;61784;-71
2023/09/06 11:27:46;;;;;;;3.60;2.10;;;;;;;36.13;22.16;100742.90;107831;1256;63857;-71
2023/09/06 11:30:21;;;;;;;5.10;2.20;;;;;;;36.17;22.17;100747.63;107847;1256;59635;-73
2023/09/06 11:32:50;;;;;;;3.30;2.00;;;;;;;36.17;22.10;100748.63;107826;1255;59548;-73
2023/09/06 11:35:19;;;;;;;7.90;2.40;;;;;;;36.00;22.19;100741.56;107820;1256;64149;-71
2023/09/06 11:37:50;;;;;;;3.80;2.20;;;;;;;35.65;22.62;100734.56;107778;1256;61415;-72
2023/09/06 11:40:19;;;;;;;7.70;2.20;;;;;;;35.28;23.10;100725.20;107955;1256;63927;-72
2023/09/06 11:42:58;;;;;;;4.60;2.10;;;;;;;35.21;23.16;100719.36;107844;1260;59504;-73
2023/09/06 11:45:26;;;;;;;6.10;2.00;;;;;;;35.35;23.31;100722.02;107923;1255;59121;-72
2023/09/06 11:47:55;;;;;;;4.40;2.50;;;;;;;35.63;23.09;100721.08;107893;1255;62922;-73
2023/09/06 11:50:23;;;;;;;2.70;1.90;;;;;;;35.75;22.69;100716.77;107795;1256;62464;-72
2023/09/06 11:53:02;;;;;;;5.00;2.30;;;;;;;35.68;22.61;100709.03;107903;1257;63748;-72
2023/09/06 11:55:32;;;;;;;5.60;1.80;;;;;;;35.52;22.96;100707.41;107871;1259;59631;-71
2023/09/06 11:58:00;;;;;;;4.20;2.00;;;;;;;35.54;22.85;100708.05;107890;1256;61423;-72
2023/09/06 12:00:45;;;;;;;5.40;1.90;;;;;;;35.72;22.95;100706.18;107915;1256;63911;-73
2023/09/06 12:03:15;;;;;;;4.50;1.90;;;;;;;35.95;22.61;100701.29;107876;1256;61315;-72
2023/09/06 12:05:45;;;;;;;4.20;1.80;;;;;;;35.97;22.57;100700.31;107822;1256;62493;-72
2023/09/06 12:08:20;;;;;;;3.90;1.60;;;;;;;35.87;22.87;100702.25;107896;1255;59503;-72
2023/09/06 12:10:52;;;;;;;2.70;1.80;;;;;;;35.64;22.98;100703.88;107986;1256;59521;-72
2023/09/06 12:13:27;;;;;;;2.50;1.80;;;;;;;35.20;23.25;100700.20;107866;1256;63543;-71
2023/09/06 12:16:01;;;;;;;4.10;2.00;;;;;;;35.10;23.46;100699.59;107898;1256;60098;-73
2023/09/06 12:18:28;;;;;;;4.30;1.90;;;;;;;35.13;23.53;100696.96;107851;1256;63843;-71
2023/09/06 12:20:57;;;;;;;2.80;1.70;;;;;;;35.05;23.77;100693.21;107915;1255;59632;-72
2023/09/06 12:23:28;;;;;;;5.00;2.10;;;;;;;34.97;23.69;100689.45;107875;1256;59161;-68
2023/09/06 12:25:57;;;;;;;3.80;1.70;;;;;;;34.87;23.90;100685.03;107958;1259;64158;-68
2023/09/06 12:28:26;;;;;;;4.20;1.90;;;;;;;34.86;24.27;100684.30;108033;1256;63822;-68
2023/09/06 12:30:58;;;;;;;4.50;1.60;;;;;;;34.98;24.44;100682.35;108085;1256;64778;-68
2023/09/06 12:33:28;;;;;;;3.00;1.50;;;;;;;34.91;24.60;100694.52;107901;1258;59595;-67
2023/09/06 12:35:59;;;;;;;2.50;1.60;;;;;;;34.80;24.63;100692.83;107862;1256;59650;-68
2023/09/06 12:38:27;;;;;;;2.80;2.10;;;;;;;34.60;25.01;100693.70;107854;1257;64147;-68
2023/09/06 12:40:56;;;;;;;4.00;1.90;;;;;;;34.45;25.12;100700.50;107887;1256;60431;-69
2023/09/06 12:43:25;;;;;;;4.00;2.30;;;;;;;34.42;24.81;100697.61;107874;1255;64943;-68
2023/09/06 12:45:53;;;;;;;4.50;1.80;;;;;;;34.39;24.97;100697.00;107888;1255;59687;-68
2023/09/06 12:48:22;;;;;;;3.70;1.90;;;;;;;34.40;25.22;100695.75;107915;1255;59649;-68
2023/09/06 12:50:50;;;;;;;4.40;1.80;;;;;;;34.36;24.89;100695.09;107946;1256;63525;-67
2023/09/06 12:53:21;;;;;;;3.40;1.60;;;;;;;34.21;25.05;100693.70;107928;1255;60273;-68
2023/09/06 12:55:48;;;;;;;3.30;2.10;;;;;;;33.93;25.11;100698.65;107869;1255;62627;-68
2023/09/06 12:58:17;;;;;;;2.80;1.90;;;;;;;33.91;25.26;100695.48;107869;1255;59905;-68
2023/09/06 13:00:45;;;;;;;4.40;2.00;;;;;;;33.91;25.41;100696.75;107849;1254;59655;-68
2023/09/06 13:03:14;;;;;;;7.10;1.90;;;;;;;33.82;25.34;100700.40;107863;1255;62899;-69
2023/09/06 13:05:42;;;;;;;6.50;2.10;;;;;;;33.60;25.70;100697.86;107840;1256;61678;-69
2023/09/06 13:08:10;;;;;;;3.50;2.10;;;;;;;33.33;25.80;100692.95;107889;1256;72995;-69
2023/09/06 13:10:38;;;;;;;2.80;1.90;;;;;;;33.19;26.12;100692.59;107870;1256;59884;-68
2023/09/06 13:13:06;;;;;;;5.00;2.60;;;;;;;33.09;26.35;100694.63;107840;1256;59479;-68
2023/09/06 13:15:33;;;;;;;4.50;2.50;;;;;;;32.88;26.55;100696.02;107839;1257;73039;-68
2023/09/06 13:18:01;;;;;;;3.10;2.10;;;;;;;32.80;26.84;100692.52;107810;1256;69531;-68
2023/09/06 13:20:29;;;;;;;5.50;2.00;;;;;;;32.79;26.83;100685.88;107892;1256;72052;-68
2023/09/06 13:22:57;;;;;;;3.10;2.40;;;;;;;32.69;27.06;100691.65;107742;1260;59797;-67
2023/09/06 13:25:24;;;;;;;4.60;2.50;;;;;;;32.69;26.98;100690.84;107814;1260;59743;-69
2023/09/06 13:27:52;;;;;;;5.10;2.40;;;;;;;32.69;27.00;100688.24;107909;1259;71839;-67
2023/09/06 13:30:19;;;;;;;6.20;2.00;;;;;;;32.82;26.71;100683.53;107897;1255;69953;-66
2023/09/06 13:32:47;;;;;;;3.00;1.60;;;;;;;32.76;27.13;100682.69;107789;1255;74959;-68
2023/09/06 13:35:15;;;;;;;3.90;1.90;;;;;;;32.67;27.32;100681.09;107748;1262;59140;-68
2023/09/06 13:37:42;;;;;;;5.70;2.00;;;;;;;32.53;27.50;100677.85;107986;1256;60156;-68
2023/09/06 13:40:11;;;;;;;3.70;2.10;;;;;;;32.54;27.54;100679.14;108045;1256;73790;-69
2023/09/06 13:42:39;;;;;;;4.20;2.00;;;;;;;32.56;27.77;100676.55;107813;1260;69370;-69
2023/09/06 13:45:07;;;;;;;5.00;1.90;;;;;;;32.61;27.78;100678.15;107900;1257;72508;-68
2023/09/06 13:47:34;;;;;;;2.90;1.50;;;;;;;32.56;28.08;100673.33;108074;1256;60380;-68
2023/09/06 13:50:03;;;;;;;3.60;1.90;;;;;;;32.54;27.89;100671.13;108069;1256;59211;-68
2023/09/06 13:52:31;;;;;;;4.70;1.70;;;;;;;32.54;27.85;100670.11;107971;1256;72799;-69
2023/09/06 13:54:58;;;;;;;5.80;2.40;;;;;;;32.62;27.84;100663.86;108044;1256;60312;-67
2023/09/06 13:57:29;;;;;;;3.90;2.00;;;;;;;32.65;28.07;100666.80;107914;1256;73521;-68